createdAt,value
2018-09-21T00:01:48.279Z,10.40
2018-09-21T00:04:15.215Z,8.93
2018-09-21T00:06:42.188Z,9.83
2018-09-21T00:09:10.372Z,9.57
2018-09-21T00:11:37.283Z,9.90
2018-09-21T00:14:04.187Z,10.10
2018-09-21T00:16:31.196Z,9.67
2018-09-21T00:18:58.127Z,9.10
2018-09-21T00:21:25.045Z,8.90
2018-09-21T00:23:51.995Z,9.27
2018-09-21T00:26:18.848Z,9.20
2018-09-21T00:28:45.792Z,10.20
2018-09-21T00:31:12.757Z,9.20
2018-09-21T00:33:39.716Z,9.30
2018-09-21T00:36:06.663Z,8.40
2018-09-21T00:38:33.619Z,10.60
2018-09-21T00:41:00.580Z,9.90
2018-09-21T00:43:27.547Z,10.50
2018-09-21T00:45:54.494Z,9.67
2018-09-21T00:48:21.471Z,10.33
2018-09-21T00:50:48.407Z,10.80
2018-09-21T00:53:15.364Z,11.33
2018-09-21T00:55:42.378Z,11.63
2018-09-21T00:58:09.281Z,11.70
2018-09-21T01:00:36.279Z,13.43
2018-09-21T01:03:03.195Z,14.83
2018-09-21T01:05:30.154Z,14.63
2018-09-21T01:07:57.108Z,14.00
2018-09-21T01:10:24.096Z,12.80
2018-09-21T01:12:51.339Z,11.57
2018-09-21T01:15:18.244Z,11.00
2018-09-21T01:17:45.166Z,12.73
2018-09-21T01:20:12.105Z,13.20
2018-09-21T01:22:39.064Z,11.83
2018-09-21T01:25:06.016Z,11.27
2018-09-21T01:27:32.975Z,13.07
2018-09-21T01:29:59.961Z,12.90
2018-09-21T01:32:26.896Z,13.80
2018-09-21T01:34:53.968Z,13.33
2018-09-21T01:37:21.108Z,13.00
2018-09-21T01:39:48.072Z,13.80
2018-09-21T01:42:16.070Z,12.97
2018-09-21T01:44:43.063Z,11.97
2018-09-21T01:47:09.997Z,13.87
2018-09-21T01:49:36.929Z,12.88
2018-09-21T01:52:03.891Z,13.53
2018-09-21T01:54:30.839Z,11.57
2018-09-21T01:56:57.862Z,13.00
2018-09-21T01:59:24.761Z,11.10
2018-09-21T02:01:51.716Z,11.40
2018-09-21T02:04:18.858Z,11.40
2018-09-21T02:06:45.736Z,11.50
2018-09-21T02:09:12.595Z,11.63
2018-09-21T02:11:39.545Z,10.87
2018-09-21T02:14:06.531Z,11.37
2018-09-21T02:16:33.487Z,11.23
2018-09-21T02:19:00.460Z,10.50
2018-09-21T02:21:27.373Z,11.93
2018-09-21T02:23:54.367Z,11.83
2018-09-21T02:26:21.376Z,11.50
2018-09-21T02:28:48.269Z,11.93
2018-09-21T02:31:15.212Z,11.80
2018-09-21T02:33:42.163Z,11.33
2018-09-21T02:36:09.144Z,10.50
2018-09-21T02:38:36.072Z,10.07
2018-09-21T02:41:02.919Z,11.60
2018-09-21T02:43:29.792Z,11.50
2018-09-21T02:45:56.687Z,10.20
2018-09-21T02:48:23.566Z,11.33
2018-09-21T02:50:50.469Z,11.30
2018-09-21T02:53:17.412Z,11.80
2018-09-21T02:55:44.367Z,11.07
2018-09-21T02:58:11.325Z,12.03
2018-09-21T03:00:38.437Z,10.93
2018-09-21T03:03:05.243Z,11.27
2018-09-21T03:05:32.203Z,11.87
2018-09-21T03:07:59.156Z,11.80
2018-09-21T03:10:26.147Z,11.83
2018-09-21T03:12:53.007Z,11.53
2018-09-21T03:15:19.937Z,12.10
2018-09-21T03:17:46.897Z,11.40
2018-09-21T03:20:13.848Z,12.10
2018-09-21T03:22:40.797Z,11.90
2018-09-21T03:25:07.670Z,11.50
2018-09-21T03:27:35.546Z,12.43
2018-09-21T03:30:02.501Z,12.00
2018-09-21T03:32:30.376Z,11.83
2018-09-21T03:34:57.332Z,12.23
2018-09-21T03:37:24.289Z,11.27
2018-09-21T03:39:51.251Z,12.20
2018-09-21T03:42:18.242Z,11.77
2018-09-21T03:44:45.451Z,12.13
2018-09-21T03:47:12.304Z,11.57
2018-09-21T03:49:39.179Z,13.83
2018-09-21T03:52:06.156Z,11.60
2018-09-21T03:54:33.095Z,11.13
2018-09-21T03:56:59.960Z,12.63
2018-09-21T03:59:26.960Z,12.47
2018-09-21T04:01:53.860Z,11.90
2018-09-21T04:04:20.867Z,12.57
2018-09-21T04:06:47.791Z,12.30
2018-09-21T04:09:14.791Z,13.07
2018-09-21T04:11:41.694Z,10.87
2018-09-21T04:14:08.705Z,12.07
2018-09-21T04:16:35.590Z,11.53
2018-09-21T04:19:02.564Z,12.95
2018-09-21T04:21:29.560Z,12.50
2018-09-21T04:23:56.498Z,11.67
2018-09-21T04:26:23.435Z,12.65
2018-09-21T04:28:50.406Z,11.77
2018-09-21T04:31:17.352Z,12.17
2018-09-21T04:33:44.302Z,11.97
2018-09-21T04:36:11.306Z,11.33
2018-09-21T04:38:38.224Z,11.50
2018-09-21T04:41:05.088Z,11.73
2018-09-21T04:43:32.035Z,13.10
2018-09-21T04:45:59.204Z,12.83
2018-09-21T04:48:26.152Z,12.58
2018-09-21T04:50:53.024Z,13.93
2018-09-21T04:53:19.980Z,12.43
2018-09-21T04:55:46.976Z,12.50
2018-09-21T04:58:13.896Z,12.67
2018-09-21T05:00:40.804Z,11.83
2018-09-21T05:03:07.795Z,12.50
2018-09-21T05:05:34.761Z,12.40
2018-09-21T05:08:01.708Z,11.93
2018-09-21T05:10:28.667Z,12.60
2018-09-21T05:12:55.655Z,12.10
2018-09-21T05:15:22.631Z,12.10
2018-09-21T05:17:50.588Z,12.13
2018-09-21T05:20:18.580Z,12.73
2018-09-21T05:22:45.440Z,12.30
2018-09-21T05:25:12.385Z,11.60
2018-09-21T05:27:39.349Z,12.20
2018-09-21T05:30:06.304Z,11.90
2018-09-21T05:32:33.379Z,12.23
2018-09-21T05:35:00.269Z,12.13
2018-09-21T05:37:27.151Z,12.17
2018-09-21T05:39:54.125Z,11.50
2018-09-21T05:42:22.100Z,12.33
2018-09-21T05:44:49.076Z,12.53
2018-09-21T05:47:15.980Z,10.80
2018-09-21T05:49:42.904Z,11.70
2018-09-21T05:52:10.308Z,11.27
2018-09-21T05:54:37.177Z,12.77
2018-09-21T05:57:04.035Z,11.20
2018-09-21T05:59:31.032Z,11.27
2018-09-21T06:01:57.991Z,10.67
2018-09-21T06:04:24.911Z,11.05
2018-09-21T06:06:51.863Z,10.63
2018-09-21T06:09:18.863Z,10.87
2018-09-21T06:11:45.784Z,10.83
2018-09-21T06:14:12.749Z,9.87
2018-09-21T06:16:39.991Z,10.57
2018-09-21T06:19:07.112Z,9.50
2018-09-21T06:21:34.147Z,9.97
2018-09-21T06:24:01.100Z,9.40
2018-09-21T06:26:28.639Z,8.90
2018-09-21T06:28:55.641Z,9.90
2018-09-21T06:31:23.287Z,9.90
2018-09-21T06:33:50.439Z,10.13
2018-09-21T06:36:17.436Z,9.77
2018-09-21T06:38:44.480Z,8.93
2018-09-21T06:41:11.431Z,9.03
2018-09-21T06:43:38.387Z,9.93
2018-09-21T06:46:05.327Z,9.70
2018-09-21T06:48:32.316Z,9.40
2018-09-21T06:50:59.364Z,10.00
2018-09-21T06:53:26.307Z,9.50
2018-09-21T06:55:53.275Z,9.50
2018-09-21T06:58:20.215Z,10.00
2018-09-21T07:00:47.239Z,9.80
2018-09-21T07:03:14.110Z,8.77
2018-09-21T07:05:41.008Z,9.17
2018-09-21T07:08:07.963Z,8.90
2018-09-21T07:10:34.895Z,8.93
2018-09-21T07:13:01.772Z,9.70
2018-09-21T07:15:28.743Z,9.20
2018-09-21T07:17:55.752Z,9.30
2018-09-21T07:20:22.616Z,8.70
2018-09-21T07:22:49.500Z,8.70
2018-09-21T07:25:16.444Z,8.53
2018-09-21T07:27:43.407Z,8.73
2018-09-21T07:30:10.365Z,8.03
2018-09-21T07:32:37.227Z,8.60
2018-09-21T07:35:04.244Z,9.00
2018-09-21T07:37:31.222Z,8.87
2018-09-21T07:39:58.099Z,8.93
2018-09-21T07:42:25.060Z,8.30
2018-09-21T07:44:52.008Z,8.97
2018-09-21T07:47:18.959Z,9.23
2018-09-21T07:49:45.951Z,8.47
2018-09-21T07:52:12.836Z,8.50
2018-09-21T07:54:39.747Z,8.43
2018-09-21T07:57:06.711Z,9.38
2018-09-21T07:59:33.695Z,9.17
2018-09-21T08:02:00.685Z,8.10
2018-09-21T08:04:27.969Z,8.60
2018-09-21T08:06:54.836Z,8.53
2018-09-21T08:09:21.787Z,7.43
2018-09-21T08:11:48.647Z,8.10
2018-09-21T08:14:15.624Z,8.07
2018-09-21T08:16:42.564Z,7.40
2018-09-21T08:19:09.532Z,7.70
2018-09-21T08:21:36.466Z,7.70
2018-09-21T08:24:03.627Z,8.17
2018-09-21T08:26:30.646Z,7.63
2018-09-21T08:28:57.582Z,7.60
2018-09-21T08:31:24.571Z,7.80
2018-09-21T08:33:52.167Z,7.77
2018-09-21T08:36:19.065Z,6.53
2018-09-21T08:38:45.986Z,7.17
2018-09-21T08:41:12.959Z,7.50
2018-09-21T08:43:39.903Z,6.80
2018-09-21T08:46:06.769Z,6.83
2018-09-21T08:48:33.735Z,7.13
2018-09-21T08:51:00.675Z,7.10
2018-09-21T08:53:27.689Z,7.27
2018-09-21T08:55:54.560Z,7.20
2018-09-21T08:58:21.458Z,7.60
2018-09-21T09:00:48.405Z,7.00
2018-09-21T09:03:15.460Z,6.87
2018-09-21T09:05:50.816Z,6.70
2018-09-21T09:08:17.777Z,5.20
2018-09-21T09:10:44.747Z,5.80
2018-09-21T09:13:12.723Z,5.60
2018-09-21T09:15:39.675Z,6.20
2018-09-21T09:18:06.639Z,5.50
2018-09-21T09:20:33.593Z,6.80
2018-09-21T09:23:00.539Z,5.20
2018-09-21T09:25:27.426Z,5.43
2018-09-21T09:27:54.280Z,6.05
2018-09-21T09:30:21.212Z,5.60
2018-09-21T09:32:48.193Z,5.80
2018-09-21T09:35:15.144Z,5.40
2018-09-21T09:37:42.007Z,5.90
2018-09-21T09:42:35.902Z,5.40
2018-09-21T09:45:02.872Z,6.03
2018-09-21T09:47:29.835Z,4.90
2018-09-21T09:49:56.700Z,5.90
2018-09-21T09:52:23.579Z,6.30
2018-09-21T09:54:50.500Z,5.43
2018-09-21T09:57:17.435Z,5.53
2018-09-21T09:59:44.302Z,6.33
2018-09-21T10:02:11.270Z,5.83
2018-09-21T10:04:38.213Z,5.53
2018-09-21T10:07:05.163Z,5.40
2018-09-21T10:09:32.027Z,5.83
2018-09-21T10:11:59.059Z,5.20
2018-09-21T10:14:25.941Z,5.83
2018-09-21T10:16:52.916Z,6.33
2018-09-21T10:19:19.863Z,5.50
2018-09-21T10:21:46.735Z,5.90
2018-09-21T10:24:13.706Z,5.60
2018-09-21T10:26:40.650Z,5.30
2018-09-21T10:29:07.604Z,6.37
2018-09-21T10:31:34.563Z,5.33
2018-09-21T10:34:01.589Z,5.87
2018-09-21T10:36:28.545Z,4.67
2018-09-21T10:38:56.456Z,5.00
2018-09-21T10:41:23.407Z,5.10
2018-09-21T10:43:50.377Z,4.53
2018-09-21T10:46:18.333Z,4.47
2018-09-21T10:48:45.572Z,4.30
2018-09-21T10:51:12.443Z,4.27
2018-09-21T10:53:39.408Z,3.90
2018-09-21T10:56:06.396Z,3.33
2018-09-21T10:58:33.370Z,3.70
2018-09-21T11:01:00.288Z,2.80
2018-09-21T11:03:27.279Z,3.50
2018-09-21T11:05:54.120Z,3.33
2018-09-21T11:08:21.112Z,3.10
2018-09-21T11:10:49.054Z,3.70
2018-09-21T11:13:15.995Z,3.77
2018-09-21T11:15:42.871Z,3.37
2018-09-21T11:18:10.836Z,4.83
2018-09-21T11:20:37.781Z,3.60
2018-09-21T11:23:05.056Z,3.80
2018-09-21T11:25:32.032Z,4.10
2018-09-21T11:28:00.005Z,3.93
2018-09-21T11:30:26.967Z,3.90
2018-09-21T11:32:53.940Z,3.73
2018-09-21T11:35:20.848Z,3.50
2018-09-21T11:37:47.831Z,4.40
2018-09-21T11:40:14.848Z,3.90
2018-09-21T11:42:41.731Z,3.73
2018-09-21T11:45:08.680Z,4.00
2018-09-21T11:47:35.726Z,3.37
2018-09-21T11:50:02.528Z,4.53
2018-09-21T11:54:57.064Z,3.70
2018-09-21T11:57:23.987Z,3.83
2018-09-21T11:59:50.860Z,4.07
2018-09-21T12:02:17.823Z,4.47
2018-09-21T12:04:44.810Z,4.33
2018-09-21T12:07:11.720Z,3.83
2018-09-21T12:09:38.645Z,4.20
2018-09-21T12:12:05.603Z,3.80
2018-09-21T12:14:32.511Z,3.70
2018-09-21T12:16:59.413Z,3.80
2018-09-21T12:19:27.288Z,3.80
2018-09-21T12:24:21.256Z,3.47
2018-09-21T12:26:53.140Z,3.83
2018-09-21T12:29:20.055Z,3.50
2018-09-21T12:31:47.040Z,3.47
2018-09-21T12:34:14.035Z,3.73
2018-09-21T12:36:40.956Z,3.03
2018-09-21T12:39:09.984Z,3.17
2018-09-21T12:41:36.903Z,2.80
2018-09-21T12:44:04.063Z,3.07
2018-09-21T12:46:31.088Z,3.50
2018-09-21T12:49:00.168Z,3.13
2018-09-21T12:51:28.167Z,3.10
2018-09-21T12:53:55.241Z,2.80
2018-09-21T12:56:22.413Z,2.90
2018-09-21T12:58:49.373Z,3.10
2018-09-21T13:01:16.295Z,3.57
2018-09-21T13:03:43.207Z,3.40
2018-09-21T13:06:10.198Z,3.00
2018-09-21T13:08:37.103Z,3.02
2018-09-21T13:11:03.980Z,3.57
2018-09-21T13:13:30.975Z,3.10
2018-09-21T13:15:58.161Z,3.20
2018-09-21T13:18:25.052Z,3.20
2018-09-21T13:20:51.915Z,3.03
2018-09-21T13:23:18.859Z,3.10
2018-09-21T13:25:45.894Z,3.20
2018-09-21T13:28:13.821Z,3.03
2018-09-21T13:30:40.773Z,2.83
2018-09-21T13:33:07.641Z,3.00
2018-09-21T13:35:34.620Z,3.27
2018-09-21T13:38:01.527Z,3.20
2018-09-21T13:40:28.479Z,2.90
2018-09-21T13:42:55.451Z,2.90
2018-09-21T13:45:22.427Z,3.23
2018-09-21T13:47:49.747Z,2.90
2018-09-21T13:50:17.673Z,2.70
2018-09-21T13:52:44.600Z,3.03
2018-09-21T13:55:11.602Z,2.50
2018-09-21T13:57:38.474Z,3.03
2018-09-21T14:00:06.115Z,2.50
2018-09-21T14:02:33.065Z,2.73
2018-09-21T14:05:00.024Z,3.20
2018-09-21T14:07:26.971Z,2.70
2018-09-21T14:09:53.911Z,2.63
2018-09-21T14:12:20.893Z,2.33
2018-09-21T14:14:47.847Z,1.70
2018-09-21T14:17:14.796Z,1.70
2018-09-21T14:19:41.747Z,1.60
2018-09-21T14:22:08.715Z,1.67
2018-09-21T14:24:35.681Z,1.60
2018-09-21T14:27:02.631Z,1.00
2018-09-21T14:29:29.600Z,1.40
2018-09-21T14:31:56.455Z,1.60
2018-09-21T14:34:23.319Z,1.27
2018-09-21T14:36:50.243Z,1.17
2018-09-21T14:39:17.267Z,1.50
2018-09-21T14:41:44.163Z,1.13
2018-09-21T14:44:11.135Z,1.20
2018-09-21T14:46:40.041Z,1.17
2018-09-21T14:49:06.972Z,1.00
2018-09-21T14:51:34.554Z,1.40
2018-09-21T14:54:01.458Z,1.10
2018-09-21T14:56:28.363Z,1.40
2018-09-21T14:58:55.322Z,1.13
2018-09-21T15:01:22.299Z,1.57
2018-09-21T15:03:49.208Z,1.60
2018-09-21T15:06:16.154Z,1.57
2018-09-21T15:08:43.163Z,1.50
2018-09-21T15:11:10.106Z,2.07
2018-09-21T15:13:37.059Z,1.57
2018-09-21T15:16:04.008Z,1.37
2018-09-21T15:18:31.046Z,1.40
2018-09-21T15:20:58.634Z,1.30
2018-09-21T15:23:25.511Z,1.40
2018-09-21T15:25:52.394Z,2.23
2018-09-21T15:28:20.500Z,1.80
2018-09-21T15:30:47.394Z,1.80
2018-09-21T15:33:14.256Z,1.90
2018-09-21T15:35:41.133Z,1.53
2018-09-21T15:38:13.423Z,1.80
2018-09-21T15:40:40.312Z,2.03
2018-09-21T15:43:07.283Z,2.10
2018-09-21T15:45:34.127Z,1.20
2018-09-21T15:48:01.083Z,1.60
2018-09-21T15:50:27.997Z,1.47
2018-09-21T15:52:55.970Z,1.70
2018-09-21T15:55:23.673Z,2.03
2018-09-21T15:57:50.595Z,1.70
2018-09-21T16:00:17.576Z,1.90
2018-09-21T16:02:44.622Z,1.73
2018-09-21T16:05:11.873Z,1.87
2018-09-21T16:07:38.922Z,1.60
2018-09-21T16:10:05.785Z,1.67
2018-09-21T16:12:32.800Z,1.77
2018-09-21T16:14:59.726Z,2.07
2018-09-21T16:17:26.655Z,1.93
2018-09-21T16:19:53.619Z,1.93
2018-09-21T16:22:20.577Z,1.93
2018-09-21T16:24:47.524Z,1.67
2018-09-21T16:27:14.387Z,2.13
2018-09-21T16:29:41.347Z,1.90
2018-09-21T16:32:08.327Z,2.10
2018-09-21T16:34:35.269Z,1.90
2018-09-21T16:37:02.148Z,1.90
2018-09-21T16:39:29.112Z,1.57
2018-09-21T16:41:56.024Z,1.70
2018-09-21T16:44:22.980Z,1.50
2018-09-21T16:46:49.948Z,2.10
2018-09-21T16:49:16.923Z,2.07
2018-09-21T16:51:43.955Z,2.20
2018-09-21T16:54:10.832Z,1.90
2018-09-21T16:56:38.544Z,1.80
2018-09-21T16:59:05.451Z,2.20
2018-09-21T17:01:32.412Z,2.50
2018-09-21T17:03:59.513Z,3.00
2018-09-21T17:06:26.430Z,2.50
2018-09-21T17:08:53.471Z,2.20
2018-09-21T17:11:20.511Z,2.60
2018-09-21T17:13:47.382Z,2.60
2018-09-21T17:16:14.248Z,2.60
2018-09-21T17:18:41.204Z,2.13
2018-09-21T17:21:08.197Z,2.87
2018-09-21T17:23:35.172Z,2.57
2018-09-21T17:26:02.092Z,2.50
2018-09-21T17:28:29.076Z,2.75
2018-09-21T17:30:55.999Z,2.70
2018-09-21T17:33:22.947Z,3.00
2018-09-21T17:35:49.900Z,3.00
2018-09-21T17:38:17.051Z,4.80
2018-09-21T17:40:43.932Z,3.47
2018-09-21T17:43:10.795Z,4.07
2018-09-21T17:45:37.762Z,17.77
2018-09-21T17:48:04.704Z,12.10
2018-09-21T17:50:31.702Z,6.10
2018-09-21T17:52:58.651Z,2.87
2018-09-21T17:55:25.583Z,2.70
2018-09-21T17:57:52.635Z,2.60
2018-09-21T18:00:22.467Z,2.67
2018-09-21T18:02:47.151Z,1.90
2018-09-21T18:05:14.030Z,2.17
2018-09-21T18:07:40.984Z,2.27
2018-09-21T18:10:07.920Z,2.10
2018-09-21T18:12:34.888Z,2.57
2018-09-21T18:15:01.865Z,2.80
2018-09-21T18:17:28.703Z,3.03
2018-09-21T18:19:55.569Z,3.10
2018-09-21T18:22:22.424Z,5.63
2018-09-21T18:24:49.361Z,28.80
2018-09-21T18:27:16.232Z,52.90
2018-09-21T18:29:43.180Z,11.03
2018-09-21T18:32:10.142Z,2.90
2018-09-21T18:34:37.116Z,3.57
2018-09-21T18:37:04.316Z,2.33
2018-09-21T18:39:33.315Z,2.50
2018-09-21T18:42:00.221Z,3.20
2018-09-21T18:44:27.167Z,2.63
2018-09-21T18:46:54.032Z,2.00
2018-09-21T18:49:21.087Z,1.90
2018-09-21T18:51:48.053Z,2.00
2018-09-21T18:54:15.032Z,2.40
2018-09-21T18:56:42.088Z,2.03
2018-09-21T18:59:08.961Z,2.20
2018-09-21T19:01:35.896Z,3.37
2018-09-21T19:04:02.925Z,2.43
2018-09-21T19:06:29.720Z,2.30
2018-09-21T19:08:56.639Z,2.23
2018-09-21T19:11:23.928Z,1.60
2018-09-21T19:13:50.876Z,2.13
2018-09-21T19:16:17.772Z,2.40
2018-09-21T19:18:44.687Z,2.60
2018-09-21T19:21:11.648Z,2.67
2018-09-21T19:23:38.519Z,2.57
2018-09-21T19:26:05.485Z,2.37
2018-09-21T19:28:32.411Z,2.07
2018-09-21T19:30:59.456Z,2.47
2018-09-21T19:33:26.445Z,2.53
2018-09-21T19:35:54.416Z,2.70
2018-09-21T19:38:22.052Z,2.17
2018-09-21T19:40:48.960Z,2.73
2018-09-21T19:43:15.852Z,2.30
2018-09-21T19:45:42.811Z,2.77
2018-09-21T19:48:09.757Z,2.20
2018-09-21T19:50:36.667Z,2.00
2018-09-21T19:53:03.705Z,2.23
2018-09-21T19:55:30.576Z,2.53
2018-09-21T19:57:57.543Z,2.53
2018-09-21T20:00:24.509Z,6.70
2018-09-21T20:02:51.459Z,14.40
2018-09-21T20:05:18.385Z,14.73
2018-09-21T20:07:45.283Z,7.63
2018-09-21T20:10:12.500Z,3.00
2018-09-21T20:12:39.401Z,2.80
2018-09-21T20:15:06.336Z,2.13
2018-09-21T20:17:33.309Z,2.30
2018-09-21T20:20:00.254Z,2.50
2018-09-21T20:22:27.211Z,2.27
2018-09-21T20:24:54.194Z,2.80
2018-09-21T20:27:21.148Z,3.30
2018-09-21T20:29:48.109Z,2.77
2018-09-21T20:32:21.023Z,2.60
2018-09-21T20:34:47.947Z,2.20
2018-09-21T20:37:14.834Z,4.30
2018-09-21T20:39:41.763Z,2.27
2018-09-21T20:42:08.759Z,2.30
2018-09-21T20:44:35.751Z,2.53
2018-09-21T20:47:02.574Z,1.97
2018-09-21T20:49:29.517Z,2.20
2018-09-21T20:51:56.481Z,3.00
2018-09-21T20:54:23.401Z,2.27
2018-09-21T20:56:50.315Z,2.60
2018-09-21T20:59:17.333Z,2.20
2018-09-21T21:01:44.184Z,2.37
2018-09-21T21:04:11.115Z,2.63
2018-09-21T21:06:38.008Z,2.17
2018-09-21T21:09:07.011Z,13.80
2018-09-21T21:11:34.987Z,97.80
2018-09-21T21:14:01.845Z,16.67
2018-09-21T21:16:28.779Z,4.43
2018-09-21T21:18:55.643Z,2.47
2018-09-21T21:21:22.598Z,3.20
2018-09-21T21:23:49.601Z,2.47
2018-09-21T21:26:16.467Z,2.70
2018-09-21T21:28:43.419Z,2.80
2018-09-21T21:31:10.320Z,2.70
2018-09-21T21:33:37.288Z,2.50
2018-09-21T21:36:04.238Z,2.13
2018-09-21T21:38:31.104Z,3.10
2018-09-21T21:40:57.968Z,2.47
2018-09-21T21:43:24.891Z,2.53
2018-09-21T21:45:51.886Z,2.40
2018-09-21T21:48:18.845Z,2.40
2018-09-21T21:50:45.715Z,3.13
2018-09-21T21:53:12.645Z,2.73
2018-09-21T21:55:39.640Z,2.67
2018-09-21T21:58:06.491Z,2.37
2018-09-21T22:00:39.149Z,2.30
2018-09-21T22:03:06.095Z,2.77
2018-09-21T22:05:33.039Z,2.37
2018-09-21T22:08:00.063Z,2.20
2018-09-21T22:10:26.955Z,2.50
2018-09-21T22:12:59.747Z,2.07
2018-09-21T22:15:26.712Z,10.53
2018-09-21T22:17:56.634Z,9.03
2018-09-21T22:20:23.591Z,9.27
2018-09-21T22:22:50.559Z,7.80
2018-09-21T22:25:17.549Z,2.60
2018-09-21T22:27:44.492Z,3.87
2018-09-21T22:30:11.458Z,2.90
2018-09-21T22:32:39.219Z,3.73
2018-09-21T22:35:06.195Z,2.90
2018-09-21T22:37:33.141Z,3.10
2018-09-21T22:40:00.152Z,2.47
2018-09-21T22:42:27.060Z,2.97
2018-09-21T22:44:54.052Z,3.27
2018-09-21T22:47:20.949Z,2.80
2018-09-21T22:49:47.935Z,2.27
2018-09-21T22:52:14.867Z,3.60
2018-09-21T22:54:41.859Z,2.87
2018-09-21T22:57:08.787Z,2.10
2018-09-21T22:59:35.739Z,2.57
2018-09-21T23:02:02.692Z,2.10
2018-09-21T23:04:29.647Z,2.30
2018-09-21T23:06:56.603Z,2.47
2018-09-21T23:09:23.600Z,2.53
2018-09-21T23:11:50.528Z,2.10
2018-09-21T23:14:17.516Z,2.50
2018-09-21T23:16:44.443Z,2.60
2018-09-21T23:19:11.306Z,2.13
2018-09-21T23:21:38.761Z,2.57
2018-09-21T23:24:05.608Z,2.50
2018-09-21T23:26:32.596Z,2.20
2018-09-21T23:28:59.565Z,2.00
2018-09-21T23:31:26.488Z,13.80
2018-09-21T23:33:53.385Z,37.80
2018-09-21T23:36:20.916Z,45.77
2018-09-21T23:38:47.882Z,40.77
2018-09-21T23:41:14.827Z,10.10
2018-09-21T23:43:41.796Z,37.73
2018-09-21T23:46:08.764Z,22.90
2018-09-21T23:48:35.700Z,11.93
2018-09-21T23:51:02.656Z,8.33
2018-09-21T23:53:29.628Z,6.63
2018-09-21T23:55:56.571Z,12.07
2018-09-21T23:58:23.591Z,7.93
